Terminal Aerodrome Forecast
Issued by NWS Upton, NY

Home | Current Version | Previous Version | Text Only | Print | Product List | Glossary On
Versions: 1 2 3 4 5 6 7 8 9 10 11 12 13 14 15 16 17 18 19 20 21 22 23 24 25 26 27 28 29 30 31 32 33 34
000
FTUS41 KOKX 250148 AAA
TAFEWR
TAF AMD
KEWR 250148Z 2502/2606 10008KT 6SM -RA SCT025 OVC045
      TEMPO 2503/2505 5SM -RA BKN025
     FM250500 06008KT 5SM -RA SCT006 OVC015
     FM250800 06012G18KT 3SM RA BR OVC006
      TEMPO 2510/2514 1SM +RA BR SCT006 OVC012
     FM251400 06012G18KT 2SM SHRA BR OVC006
     FM251800 05005KT 3SM -SHRA BR OVC006
     FM252100 VRB04KT 1/2SM -SHRA FG OVC004=

USA.gov is the U.S. government's official web portal to all federal, state and local government web resources and services.